createdAt,value
2022-08-26T13:16:08.149Z,7.00
2022-08-26T13:18:35.717Z,12.23
2022-08-26T13:21:09.457Z,5.93
2022-08-26T13:23:40.591Z,7.88
2022-08-26T13:26:09.636Z,8.73
2022-08-26T13:28:36.746Z,7.97
2022-08-26T13:31:05.145Z,7.72
2022-08-26T13:33:33.268Z,8.82
2022-08-26T13:36:01.585Z,11.88
2022-08-26T13:38:33.034Z,7.78
2022-08-26T13:41:02.736Z,12.90
2022-08-26T13:43:31.425Z,7.75
2022-08-26T13:45:58.761Z,9.88
2022-08-26T13:48:26.406Z,7.57
2022-08-26T13:50:54.080Z,7.65
2022-08-26T13:53:21.698Z,7.60
2022-08-26T13:55:49.393Z,7.78
2022-08-26T13:58:17.363Z,7.65
2022-08-26T14:00:44.859Z,8.93
2022-08-26T14:03:13.528Z,7.50
2022-08-26T14:05:40.871Z,6.25
2022-08-26T14:08:08.421Z,8.32
2022-08-26T14:10:36.201Z,9.52
2022-08-26T14:13:04.034Z,10.73
2022-08-26T14:15:37.028Z,7.38
2022-08-26T14:18:05.936Z,7.88
2022-08-26T14:20:36.887Z,8.80
2022-08-26T14:23:13.783Z,8.90
2022-08-26T14:25:42.341Z,9.00
2022-08-26T14:28:09.632Z,8.90
2022-08-26T14:30:40.211Z,10.75
2022-08-26T14:33:10.747Z,11.70
2022-08-26T14:35:38.152Z,9.07
2022-08-26T14:38:05.336Z,8.65
2022-08-26T14:40:33.992Z,8.55
2022-08-26T14:43:06.154Z,11.38
2022-08-26T14:45:37.850Z,7.82
2022-08-26T14:48:05.126Z,8.63
2022-08-26T14:50:32.830Z,8.60
2022-08-26T14:53:19.173Z,8.93
2022-08-26T14:55:47.015Z,9.10
2022-08-26T14:58:14.083Z,7.53
2022-08-26T15:00:41.208Z,8.65
2022-08-26T15:03:08.495Z,9.50
2022-08-26T15:05:35.648Z,9.05
2022-08-26T15:08:04.721Z,8.25
2022-08-26T15:10:31.941Z,10.57
2022-08-26T15:12:59.688Z,8.57
2022-08-26T15:15:27.623Z,12.15
2022-08-26T15:17:56.287Z,15.68
2022-08-26T15:20:23.475Z,12.57
2022-08-26T15:22:50.621Z,11.90
2022-08-26T15:25:18.622Z,14.35
2022-08-26T15:27:45.776Z,13.13
2022-08-26T15:30:13.544Z,15.52
2022-08-26T15:32:40.674Z,19.55
2022-08-26T15:35:09.306Z,18.27
2022-08-26T15:37:36.788Z,14.30
2022-08-26T15:40:05.315Z,19.20
2022-08-26T15:42:32.642Z,10.18
2022-08-26T15:44:59.777Z,14.20
2022-08-26T15:47:26.975Z,16.17
2022-08-26T15:49:55.650Z,13.27
2022-08-26T15:52:22.752Z,13.70
2022-08-26T15:54:49.889Z,14.20
2022-08-26T15:57:19.283Z,17.02
2022-08-26T15:59:46.968Z,24.75
2022-08-26T16:02:14.323Z,15.93
2022-08-26T16:04:42.019Z,16.38
2022-08-26T16:07:10.718Z,15.63
2022-08-26T16:09:37.855Z,15.20
2022-08-26T16:12:05.530Z,14.68
2022-08-26T16:14:33.128Z,14.55
2022-08-26T16:17:00.284Z,20.63
2022-08-26T16:19:29.020Z,15.27
2022-08-26T16:21:56.078Z,13.63
2022-08-26T16:24:27.183Z,17.60
2022-08-26T16:26:57.427Z,12.73
2022-08-26T16:29:24.715Z,20.85
2022-08-26T16:31:53.422Z,15.98
2022-08-26T16:34:21.245Z,16.27
2022-08-26T16:36:48.665Z,12.43
2022-08-26T16:39:15.822Z,15.82
2022-08-26T16:41:44.157Z,14.45
2022-08-26T16:44:12.093Z,16.80
2022-08-26T16:46:39.765Z,16.65
2022-08-26T16:49:07.109Z,14.85
2022-08-26T16:51:37.636Z,12.55
2022-08-26T16:54:07.520Z,14.00
2022-08-26T16:56:35.229Z,19.75
2022-08-26T16:59:05.248Z,20.75
2022-08-26T17:01:32.687Z,20.90
2022-08-26T17:04:01.157Z,19.90
2022-08-26T17:06:28.496Z,22.05
2022-08-26T17:08:55.711Z,16.58
2022-08-26T17:11:22.855Z,18.38
2022-08-26T17:13:50.251Z,18.77
2022-08-26T17:16:17.686Z,17.63
2022-08-26T17:18:44.865Z,18.83
2022-08-26T17:21:13.742Z,24.00
2022-08-26T17:23:42.426Z,20.40
2022-08-26T17:26:12.225Z,15.07
2022-08-26T17:28:40.382Z,22.65
2022-08-26T17:31:11.057Z,15.85
2022-08-26T17:33:39.145Z,18.55
2022-08-26T17:36:08.662Z,15.45
2022-08-26T17:38:37.807Z,19.88
2022-08-26T17:41:14.220Z,18.73
2022-08-26T17:43:41.614Z,17.83
2022-08-26T17:46:10.678Z,18.35
2022-08-26T17:48:39.466Z,19.63
2022-08-26T17:51:12.656Z,22.25
2022-08-26T17:53:41.535Z,20.27
2022-08-26T17:56:13.505Z,21.77
2022-08-26T17:58:51.435Z,17.77
2022-08-26T18:01:21.721Z,21.27
2022-08-26T18:03:50.199Z,14.32
2022-08-26T18:06:17.415Z,16.85
2022-08-26T18:08:45.189Z,18.27
2022-08-26T18:11:15.334Z,21.25
2022-08-26T18:13:47.163Z,18.88
2022-08-26T18:16:16.804Z,20.83
2022-08-26T18:18:44.348Z,26.00
2022-08-26T18:21:14.330Z,21.08
2022-08-26T18:23:42.131Z,21.10
2022-08-26T18:26:09.642Z,22.83
2022-08-26T18:28:39.842Z,21.38
2022-08-26T18:31:09.081Z,19.70
2022-08-26T18:33:36.349Z,20.08
2022-08-26T18:36:04.492Z,20.92
2022-08-26T18:38:31.790Z,24.40
2022-08-26T18:41:03.823Z,21.83
2022-08-26T18:43:31.123Z,24.05
2022-08-26T18:46:06.071Z,21.98
2022-08-26T18:48:33.475Z,22.45
2022-08-26T18:51:01.297Z,25.95
2022-08-26T18:53:29.813Z,18.67
2022-08-26T18:55:57.626Z,21.65
2022-08-26T18:58:25.604Z,21.73
2022-08-26T19:00:53.349Z,18.98
2022-08-26T19:03:20.521Z,22.52
2022-08-26T19:05:48.265Z,20.92
2022-08-26T19:08:15.463Z,23.77
2022-08-26T19:10:42.578Z,23.98
2022-08-26T19:13:10.087Z,24.52
2022-08-26T19:15:40.441Z,26.15
2022-08-26T19:18:11.505Z,22.15
2022-08-26T19:20:46.462Z,24.50
2022-08-26T19:23:30.899Z,29.75
2022-08-26T19:26:03.200Z,31.73
2022-08-26T19:28:30.420Z,25.15
2022-08-26T19:30:57.619Z,27.80
2022-08-26T19:33:25.876Z,25.25
2022-08-26T19:35:58.799Z,29.05
2022-08-26T19:38:26.056Z,26.40
2022-08-26T19:40:55.183Z,27.85
2022-08-26T19:43:26.773Z,29.58
2022-08-26T19:45:54.069Z,26.17
2022-08-26T19:48:21.283Z,33.40
2022-08-26T19:50:48.434Z,30.27
2022-08-26T19:53:15.759Z,30.48
2022-08-26T19:55:43.086Z,35.80
2022-08-26T19:58:11.765Z,31.65
2022-08-26T20:00:40.014Z,28.55
2022-08-26T20:03:08.762Z,33.28
2022-08-26T20:08:07.668Z,26.63
2022-08-26T20:10:39.433Z,27.95
2022-08-26T20:13:07.920Z,33.53
2022-08-26T20:15:36.012Z,26.38
2022-08-26T20:18:03.529Z,34.45
2022-08-26T20:20:49.364Z,30.25
2022-08-26T20:23:17.672Z,31.85
2022-08-26T20:25:46.753Z,34.75
2022-08-26T20:28:13.852Z,38.15
2022-08-26T20:30:40.948Z,39.13
2022-08-26T20:33:08.260Z,36.78
2022-08-26T20:35:35.480Z,38.50
2022-08-26T20:38:02.607Z,37.35
2022-08-26T20:40:30.268Z,37.30
2022-08-26T20:42:57.388Z,33.80
2022-08-26T20:45:24.544Z,30.23
2022-08-26T20:47:52.538Z,28.55
2022-08-26T20:50:19.894Z,34.30
2022-08-26T20:52:47.385Z,34.70
2022-08-26T20:55:14.803Z,27.83
2022-08-26T20:57:43.337Z,37.90
2022-08-26T21:00:13.711Z,33.17
2022-08-26T21:02:42.460Z,38.28
2022-08-26T21:05:09.926Z,35.50
2022-08-26T21:07:38.434Z,37.28
2022-08-26T21:10:06.603Z,37.85
2022-08-26T21:12:33.828Z,38.50
2022-08-26T21:15:01.158Z,31.90
2022-08-26T21:17:28.290Z,33.13
2022-08-26T21:19:56.422Z,37.72
2022-08-26T21:22:24.095Z,33.58
2022-08-26T21:24:51.377Z,40.47
2022-08-26T21:27:23.086Z,41.38
2022-08-26T21:29:54.202Z,43.33
2022-08-26T21:32:21.598Z,42.97
2022-08-26T21:34:48.944Z,42.17
2022-08-26T21:37:16.907Z,43.03
2022-08-26T21:39:44.429Z,33.53
2022-08-26T21:42:11.536Z,34.72
2022-08-26T21:44:38.985Z,40.45
2022-08-26T21:47:07.233Z,34.30
2022-08-26T21:49:35.483Z,40.53
2022-08-26T21:52:04.834Z,43.35
2022-08-26T21:54:36.777Z,39.72
2022-08-26T21:57:04.475Z,38.60
2022-08-26T21:59:31.682Z,36.72
2022-08-26T22:01:59.256Z,35.65
2022-08-26T22:04:26.676Z,37.42
2022-08-26T22:07:01.976Z,36.45
2022-08-26T22:09:33.630Z,33.65
2022-08-26T22:12:01.442Z,37.03
2022-08-26T22:14:30.922Z,33.47
2022-08-26T22:16:59.204Z,32.85
2022-08-26T22:19:26.889Z,31.58
2022-08-26T22:21:57.750Z,33.42
2022-08-26T22:24:27.453Z,33.05
2022-08-26T22:26:55.971Z,36.35
2022-08-26T22:29:24.484Z,32.75
2022-08-26T22:31:51.818Z,31.85
2022-08-26T22:34:20.689Z,27.48
2022-08-26T22:36:50.096Z,31.63
2022-08-26T22:39:21.195Z,39.50
2022-08-26T22:41:48.937Z,34.85
2022-08-26T22:44:17.718Z,33.83
2022-08-26T22:46:46.198Z,35.13
2022-08-26T22:49:17.578Z,45.83
2022-08-26T22:51:45.743Z,41.00
2022-08-26T22:54:14.184Z,35.92
2022-08-26T22:56:42.375Z,28.35
2022-08-26T22:59:10.126Z,29.90
2022-08-26T23:01:40.513Z,31.90
2022-08-26T23:04:08.234Z,36.60
2022-08-26T23:06:43.111Z,29.95
2022-08-26T23:09:11.257Z,31.48
2022-08-26T23:11:42.298Z,31.67
2022-08-26T23:14:09.700Z,33.65
2022-08-26T23:16:39.366Z,26.13
2022-08-26T23:19:10.687Z,26.77
2022-08-26T23:21:38.317Z,27.42
2022-08-26T23:24:07.091Z,32.20
2022-08-26T23:26:34.952Z,32.80
2022-08-26T23:29:02.983Z,31.27
2022-08-26T23:31:30.280Z,27.65
2022-08-26T23:34:15.909Z,28.75
2022-08-26T23:36:45.685Z,33.70
2022-08-26T23:39:14.768Z,32.25
2022-08-26T23:41:42.076Z,31.73
2022-08-26T23:44:09.467Z,29.38
2022-08-26T23:46:37.104Z,34.03
2022-08-26T23:49:04.748Z,24.90
2022-08-26T23:51:50.308Z,28.70
2022-08-26T23:54:17.675Z,34.38
2022-08-26T23:56:44.941Z,26.23
2022-08-26T23:59:12.178Z,28.23
